• Join FlightAware (Why Join?)
  • Login
  • US Flag 
06:30PM EDT


 

Airport Tracker/Info


-or-


 

Live Flight TrackerFlight Track Log ✈ N27XP ✈ 23-Oct-2013 ✈ KSOP - KHAO

Flight Track Log - Related Links

Times and Time Zones

All times are in EDT time to prevent confusion due to time zone crossing. See the N27XP flight status page for this flight to view local times or setup timezone preferences in your user account.

Time Position Orientation Groundspeed Altitude Reporting Facility
EDT Latitude Longitude Course Direction KTS MPH feet Rate Location/Type
10:13AM 35.3300 -79.3906 314° West 204 235 5,600  Level Washington Center
10:14AM 35.3722 -79.4433 314° West 233 268 8,700 2,640 Climbing Washington Center
10:15AM 35.4219 -79.5172 310° West 254 292 10,900 1,680 Climbing Washington Center
10:16AM 35.4717 -79.5911 310° West 299 344 12,200 1,980 Climbing Washington Center
10:18AM 35.5950 -79.7381 316° Northwest 313 360 16,600 2,340 Climbing Atlanta Center
10:19AM 35.6536 -79.8039 318° Northwest 298 343 19,000 1,980 Climbing Atlanta Center
10:20AM 35.7036 -79.8628 316° Northwest 290 334 20,600 1,800 Climbing Atlanta Center
10:21AM 35.7689 -79.9411 316° Northwest 292 336 22,600 1,740 Climbing Atlanta Center
10:22AM 35.8275 -80.0100 316° Northwest 292 336 24,100 1,380 Climbing Atlanta Center
10:23AM 35.8861 -80.0814 315° West 292 336 25,400 1,320 Climbing Atlanta Center
10:24AM 35.9444 -80.1503 316° Northwest 292 336 26,800 900 Climbing Atlanta Center
10:25AM 36.0053 -80.2244 315° West 292 336 27,200 960 Climbing Atlanta Center
10:26AM 36.0636 -80.2936 316° Northwest 310 357 28,800 1,200 Climbing Atlanta Center
10:27AM 36.1222 -80.3681 314° West 310 357 29,700 900 Climbing Atlanta Center
10:28AM 36.1828 -80.4400 316° Northwest 310 357 30,600 900 Climbing Atlanta Center
10:29AM 36.2433 -80.5144 315° West 310 357 31,500 660 Climbing Atlanta Center
10:30AM 36.3081 -80.5889 317° Northwest 315 362 32,000 240 Climbing Atlanta Center
10:31AM 36.3728 -80.6661 316° Northwest 320 368 32,000  Level Atlanta Center
10:32AM 36.4417 -80.7483 316° Northwest 331 381 32,000  Level Atlanta Center
10:33AM 36.5108 -80.8333 315° West 342 394 32,000  Level Atlanta Center
10:34AM 36.5817 -80.9208 315° West 352 405 32,000  Level Atlanta Center
10:35AM 36.6614 -81.0214 315° West 357 411 32,000  Level Atlanta Center
10:36AM 36.7386 -81.1117 317° Northwest 368 423 32,000  Level Atlanta Center
10:37AM 36.8633 -81.2661 315° West 380 437 32,000  Level Indianapolis Center
10:38AM 36.9511 -81.3783 314° West 384 442 32,000  Level Indianapolis Center
10:40AM 37.0131 -81.4819 307° West 381 438 32,000  Level Indianapolis Center
10:41AM 37.0733 -81.5819 307° West 372 428 32,000  Level Indianapolis Center
10:42AM 37.1461 -81.7028 307° West 372 428 32,000  Level Indianapolis Center
10:43AM 37.2083 -81.8056 307° West 371 427 32,000  Level Indianapolis Center
10:44AM 37.2692 -81.9078 307° West 367 422 32,000  Level Indianapolis Center
10:45AM 37.3300 -82.0103 307° West 366 421 32,000  Level Indianapolis Center
10:46AM 37.3903 -82.1119 307° West 364 419 32,000  Level Indianapolis Center
10:47AM 37.4492 -82.2133 306° West 361 415 32,000 -660 Level Indianapolis Center
10:48AM 37.5181 -82.3303 307° West 358 412 30,700 -1,320 Descending Indianapolis Center
10:49AM 37.5767 -82.4281 307° West 353 406 29,300 -1,380 Descending Indianapolis Center
10:50AM 37.6319 -82.5236 306° West 342 394 27,900 -1,440 Descending Indianapolis Center
10:51AM 37.6883 -82.6219 306° West 344 396 26,400 -1,440 Descending Indianapolis Center
10:52AM 37.7475 -82.7247 306° West 357 411 25,000 -1,320 Descending Indianapolis Center
10:53AM 37.8086 -82.8283 307° West 366 421 23,800 -1,020 Descending Indianapolis Center
10:54AM 37.8783 -82.9492 306° West 365 420 23,000 -420 Descending Indianapolis Center
10:55AM 37.9383 -83.0528 306° West 365 420 23,000  Level Indianapolis Center
10:56AM 37.9986 -83.1556 307° West 364 419 23,000  Level Indianapolis Center
10:57AM 38.0575 -83.2589 306° West 363 418 23,000  Level Indianapolis Center
10:58AM 38.1164 -83.3631 306° West 364 419 23,000 -120 Level Indianapolis Center
10:59AM 38.1761 -83.4672 306° West 364 419 22,800 -1,260 Descending Indianapolis Center
11:00AM 38.2444 -83.5875 306° West 361 415 20,500 -2,040 Descending Indianapolis Center
11:01AM 38.3008 -83.6883 305° West 352 405 18,700 -1,800 Descending Indianapolis Center
11:02AM 38.3553 -83.7828 306° West 335 386 16,900 -1,800 Descending Indianapolis Center
11:03AM 38.4097 -83.8803 305° West 336 387 15,100 -1,800 Descending Indianapolis Center
11:04AM 38.4644 -83.9792 305° West 338 389 13,300 -1,500 Descending Indianapolis Center
11:05AM 38.5183 -84.0783 305° West 339 390 12,000 -1,020 Descending Indianapolis Center
11:06AM 38.6061 -84.1294 336° Northwest 305 351 11,300 -1,080 Descending Indianapolis Center
11:07AM 38.6769 -84.1436 351° North 291 335 9,900 -1,440 Descending Indianapolis Center
11:08AM 38.7514 -84.1644 348° North 277 319 8,400 -1,380 Descending Indianapolis Center
11:09AM 38.8231 -84.1872 346° North 268 308 7,100 -1,380 Descending Indianapolis Center
11:10AM 38.9056 -84.2164 345° North 259 298 5,600 -1,440 Descending Indianapolis Center
11:11AM 38.9733 -84.2392 345° North 253 291 4,200 -1,020 Descending Indianapolis Center
11:12AM 39.0400 -84.2633 344° North 253 291 3,500 -360 Descending Indianapolis Center
11:13AM 39.1006 -84.2722 354° North 241 277 3,500  Level Indianapolis Center
11:15AM 39.1533 -84.2733 359° North 218 251 3,500 -420 Level Indianapolis Center
11:16AM 39.2025 -84.2792 355° North 197 227 2,700 -480 Descending Indianapolis Center
11:17AM 39.2497 -84.2833 356° North 185 213 2,600 -60 Descending Indianapolis Center
11:18AM 39.2878 -84.3033 338° Northwest 177 204 2,600  Level Indianapolis Center
11:19AM 39.3142 -84.3556 303° West 158 182 2,600  Level Indianapolis Center
11:20AM 39.3283 -84.3961 294° West 142 163 2,600 -120 Level Indianapolis Center
11:21AM 39.3400 -84.4328 292° West 135 155 2,400 -240 Descending Indianapolis Center